Time;durP1;ratioP1;P1;durP2;ratioP2;P2;SDS_P1;SDS_P2;PMS_P1;PMS_P2;Temp;Humidity;BMP_temperature;BMP_pressure;BME280_temperature;BME280_humidity;BME280_pressure;Samples;Min_cycle;Max_cycle;Signal;HPM_P1;HPM_P2
2023/03/30 00:01:13;;;;;;;;;;;;;;;9.46;100.00;95516.78;10516576;28;2113;-70
2023/03/30 00:06:20;;;;;;;;;;;;;;;9.41;100.00;95524.84;10524301;28;2093;-69
2023/03/30 00:11:23;;;;;;;;;;;;;;;9.42;100.00;95523.78;10511209;28;2161;-69
2023/03/30 00:16:26;;;;;;;;;;;;;;;9.34;100.00;95513.59;10524988;28;1921;-70
2023/03/30 00:21:28;;;;;;;;;;;;;;;9.40;100.00;95504.47;10523084;28;1923;-69
2023/03/30 00:26:32;;;;;;;;;;;;;;;9.34;100.00;95498.28;10514401;28;2041;-71
2023/03/30 00:31:35;;;;;;;;;;;;;;;9.32;100.00;95502.34;10520181;28;2073;-68
2023/03/30 00:36:38;;;;;;;;;;;;;;;9.33;100.00;95491.31;10514932;28;2072;-69
2023/03/30 00:41:40;;;;;;;;;;;;;;;9.27;100.00;95483.56;10518351;28;1935;-67
2023/03/30 00:46:42;;;;;;;;;;;;;;;9.37;100.00;95476.31;10517751;28;2130;-69
2023/03/30 00:51:45;;;;;;;;;;;;;;;9.28;100.00;95469.06;10515006;28;2066;-70
2023/03/30 00:56:48;;;;;;;;;;;;;;;9.23;100.00;95463.75;10516944;28;1979;-69
2023/03/30 01:01:50;;;;;;;;;;;;;;;9.21;100.00;95467.47;10511483;28;1951;-68
2023/03/30 01:06:56;;;;;;;;;;;;;;;9.18;100.00;95449.28;10523739;28;1967;-77
2023/03/30 01:12:04;;;;;;;;;;;;;;;9.12;100.00;95461.09;10525374;28;1943;-70
2023/03/30 01:17:07;;;;;;;;;;;;;;;9.08;100.00;95443.13;10525673;28;1950;-69
2023/03/30 01:22:11;;;;;;;;;;;;;;;9.14;100.00;95447.41;10521681;28;1931;-68
2023/03/30 01:27:15;;;;;;;;;;;;;;;9.16;100.00;95440.69;10523718;28;2042;-68
2023/03/30 01:32:18;;;;;;;;;;;;;;;9.20;100.00;95436.38;10515603;28;2130;-69
2023/03/30 01:37:21;;;;;;;;;;;;;;;9.29;100.00;95433.13;10519346;28;1998;-69
2023/03/30 01:42:24;;;;;;;;;;;;;;;9.48;100.00;95426.13;10520605;28;1943;-68
2023/03/30 01:47:28;;;;;;;;;;;;;;;9.59;100.00;95433.03;10511683;28;2135;-68
2023/03/30 02:03:53;;;;;;;;;;;;;;;9.81;100.00;95450.66;10512773;28;1912;-68
2023/03/30 02:08:58;;;;;;;;;;;;;;;9.86;100.00;95443.38;10514947;28;1925;-69
2023/03/30 02:14:00;;;;;;;;;;;;;;;9.94;100.00;95434.72;10511091;28;1987;-69
2023/03/30 02:19:06;;;;;;;;;;;;;;;10.01;100.00;95437.09;10506896;28;2004;-71
2023/03/30 02:24:09;;;;;;;;;;;;;;;10.19;100.00;95436.47;10523346;28;2066;-74
2023/03/30 02:29:12;;;;;;;;;;;;;;;10.35;100.00;95429.09;10512214;28;1920;-71
2023/03/30 02:34:14;;;;;;;;;;;;;;;10.47;100.00;95451.06;10517559;28;1995;-68
2023/03/30 02:39:17;;;;;;;;;;;;;;;10.64;100.00;95464.09;10513594;28;1927;-68
2023/03/30 02:44:20;;;;;;;;;;;;;;;10.72;100.00;95489.56;10510249;28;1944;-69
2023/03/30 02:49:22;;;;;;;;;;;;;;;10.59;100.00;95488.31;10515068;28;1975;-70
2023/03/30 02:54:35;;;;;;;;;;;;;;;10.36;100.00;95510.50;10514547;28;1987;-70
2023/03/30 02:59:37;;;;;;;;;;;;;;;10.31;100.00;95523.97;10508933;28;2020;-69
2023/03/30 03:04:42;;;;;;;;;;;;;;;10.24;100.00;95518.91;10511579;28;2074;-68
2023/03/30 03:09:45;;;;;;;;;;;;;;;10.34;100.00;95532.28;10509091;28;2056;-68
2023/03/30 03:14:48;;;;;;;;;;;;;;;10.21;100.00;95531.00;10508532;28;1973;-68
2023/03/30 03:19:50;;;;;;;;;;;;;;;10.16;100.00;95533.69;10506935;28;1962;-69
2023/03/30 03:24:53;;;;;;;;;;;;;;;9.95;100.00;95513.41;10514707;28;1966;-68
2023/03/30 03:29:56;;;;;;;;;;;;;;;9.90;100.00;95508.03;10520142;28;1975;-75
2023/03/30 03:34:58;;;;;;;;;;;;;;;9.85;100.00;95508.06;10520370;28;2120;-69
2023/03/30 03:40:04;;;;;;;;;;;;;;;9.87;100.00;95503.25;10527507;28;1998;-70
2023/03/30 03:45:07;;;;;;;;;;;;;;;9.90;100.00;95534.88;10520224;28;1974;-69
2023/03/30 03:50:09;;;;;;;;;;;;;;;9.92;100.00;95548.84;10503268;28;1939;-68
2023/03/30 03:55:22;;;;;;;;;;;;;;;9.97;100.00;95557.69;10520855;28;1974;-69
2023/03/30 04:00:25;;;;;;;;;;;;;;;9.84;100.00;95568.19;10520492;28;2161;-69
2023/03/30 04:05:29;;;;;;;;;;;;;;;9.79;100.00;95587.00;10519721;28;2056;-70
2023/03/30 04:10:32;;;;;;;;;;;;;;;9.73;100.00;95576.31;10524483;28;2026;-70
2023/03/30 04:15:38;;;;;;;;;;;;;;;9.73;100.00;95572.78;10522214;28;2027;-69
2023/03/30 04:20:40;;;;;;;;;;;;;;;9.72;100.00;95571.19;10527821;28;1943;-71
2023/03/30 04:25:44;;;;;;;;;;;;;;;9.75;100.00;95582.19;10518533;28;1958;-70
2023/03/30 04:30:47;;;;;;;;;;;;;;;9.74;100.00;95602.06;10510658;28;1971;-70
2023/03/30 04:35:50;;;;;;;;;;;;;;;9.76;100.00;95604.47;10515234;28;2082;-69
2023/03/30 04:40:52;;;;;;;;;;;;;;;9.78;100.00;95612.25;10515967;28;1966;-70
2023/03/30 04:45:55;;;;;;;;;;;;;;;9.78;100.00;95618.41;10513366;28;2144;-70
2023/03/30 04:50:58;;;;;;;;;;;;;;;9.78;100.00;95613.03;10518071;28;2124;-70
2023/03/30 04:56:05;;;;;;;;;;;;;;;9.80;100.00;95615.44;10515686;28;1981;-70
2023/03/30 05:01:09;;;;;;;;;;;;;;;9.81;100.00;95614.41;10520177;28;1951;-71
2023/03/30 05:06:12;;;;;;;;;;;;;;;9.81;100.00;95593.72;10513567;28;1997;-69
2023/03/30 05:11:15;;;;;;;;;;;;;;;9.81;100.00;95587.56;10515458;28;1912;-70
2023/03/30 05:16:18;;;;;;;;;;;;;;;9.83;100.00;95585.38;10507370;28;2003;-71
2023/03/30 05:21:22;;;;;;;;;;;;;;;9.83;100.00;95583.50;10516531;28;1963;-73
2023/03/30 05:26:25;;;;;;;;;;;;;;;9.85;100.00;95584.03;10516800;28;2011;-71
2023/03/30 05:31:28;;;;;;;;;;;;;;;9.84;100.00;95573.56;10509826;28;2031;-71
2023/03/30 05:36:31;;;;;;;;;;;;;;;9.88;100.00;95570.06;10513179;28;1986;-72
2023/03/30 05:41:34;;;;;;;;;;;;;;;9.86;100.00;95553.44;10513793;28;1943;-71
2023/03/30 05:46:39;;;;;;;;;;;;;;;9.87;100.00;95547.00;10513396;28;2016;-70
2023/03/30 05:51:50;;;;;;;;;;;;;;;9.88;100.00;95534.38;10496916;28;1962;-71
2023/03/30 05:56:53;;;;;;;;;;;;;;;9.92;100.00;95521.97;10513715;28;1912;-77
2023/03/30 06:01:57;;;;;;;;;;;;;;;9.94;100.00;95509.09;10518167;28;1959;-74
2023/03/30 06:07:00;;;;;;;;;;;;;;;10.01;100.00;95494.31;10520525;28;1966;-73
2023/03/30 06:12:02;;;;;;;;;;;;;;;10.13;100.00;95501.22;10519966;28;2044;-73
2023/03/30 06:17:06;;;;;;;;;;;;;;;10.19;100.00;95494.75;10527013;28;1864;-74
2023/03/30 06:22:09;;;;;;;;;;;;;;;10.28;100.00;95480.47;10513649;28;1967;-73
2023/03/30 06:27:11;;;;;;;;;;;;;;;10.48;100.00;95465.28;10523382;28;2119;-76
2023/03/30 06:32:14;;;;;;;;;;;;;;;10.65;100.00;95465.69;10518834;28;2104;-72
2023/03/30 06:37:17;;;;;;;;;;;;;;;10.61;100.00;95447.72;10517196;28;2114;-71
2023/03/30 06:42:20;;;;;;;;;;;;;;;10.73;100.00;95445.47;10529969;28;1990;-71
2023/03/30 06:47:23;;;;;;;;;;;;;;;10.77;100.00;95423.13;10523165;28;2018;-71
2023/03/30 06:52:25;;;;;;;;;;;;;;;10.83;100.00;95424.69;10518592;28;1977;-74
2023/03/30 06:57:29;;;;;;;;;;;;;;;10.93;100.00;95407.63;10517620;28;2041;-70
2023/03/30 07:02:32;;;;;;;;;;;;;;;10.90;100.00;95392.09;10509521;28;2172;-69
2023/03/30 07:07:34;;;;;;;;;;;;;;;10.81;100.00;95393.78;10512401;28;1900;-71
2023/03/30 07:12:47;;;;;;;;;;;;;;;10.96;100.00;95399.00;10510939;28;2105;-70
2023/03/30 07:17:49;;;;;;;;;;;;;;;10.99;100.00;95379.59;10511149;28;1967;-73
2023/03/30 07:23:02;;;;;;;;;;;;;;;11.05;100.00;95377.66;10511934;28;1990;-71
2023/03/30 07:28:05;;;;;;;;;;;;;;;11.36;100.00;95367.34;10511466;28;1974;-70
2023/03/30 07:33:07;;;;;;;;;;;;;;;11.97;100.00;95360.38;10513471;28;2137;-71
2023/03/30 07:38:10;;;;;;;;;;;;;;;12.39;100.00;95360.22;10511872;28;1944;-69
2023/03/30 07:43:12;;;;;;;;;;;;;;;12.32;100.00;95357.13;10514225;28;2050;-75
2023/03/30 07:48:15;;;;;;;;;;;;;;;12.39;100.00;95367.53;10515334;28;2090;-72
2023/03/30 07:53:18;;;;;;;;;;;;;;;12.16;100.00;95359.28;10509540;28;1989;-71
2023/03/30 07:58:20;;;;;;;;;;;;;;;12.10;100.00;95343.47;10509329;28;1986;-71
2023/03/30 08:03:23;;;;;;;;;;;;;;;12.00;100.00;95332.84;10510264;28;1955;-70
2023/03/30 08:08:27;;;;;;;;;;;;;;;11.96;100.00;95321.88;10514443;28;2006;-72
2023/03/30 08:13:31;;;;;;;;;;;;;;;11.98;100.00;95316.19;10513852;28;2136;-72
2023/03/30 08:18:36;;;;;;;;;;;;;;;12.23;100.00;95288.03;10500594;28;1904;-73
2023/03/30 08:23:38;;;;;;;;;;;;;;;12.54;100.00;95294.50;10518819;28;1955;-75
2023/03/30 08:28:41;;;;;;;;;;;;;;;13.00;100.00;95277.44;10514349;28;2005;-75
2023/03/30 08:33:44;;;;;;;;;;;;;;;13.14;100.00;95285.50;10520469;28;1992;-75
2023/03/30 08:38:47;;;;;;;;;;;;;;;13.61;100.00;95278.84;10513392;28;1974;-77
2023/03/30 08:43:49;;;;;;;;;;;;;;;13.51;100.00;95274.50;10520593;28;2146;-76
2023/03/30 08:48:52;;;;;;;;;;;;;;;13.17;100.00;95279.53;10516104;28;2055;-73
2023/03/30 08:53:55;;;;;;;;;;;;;;;13.35;100.00;95286.72;10515650;28;2136;-74
2023/03/30 08:58:59;;;;;;;;;;;;;;;13.46;100.00;95287.28;10523892;28;1975;-74
2023/03/30 09:04:01;;;;;;;;;;;;;;;13.85;100.00;95266.97;10521482;28;2085;-75
2023/03/30 09:09:04;;;;;;;;;;;;;;;14.21;100.00;95253.41;10523569;28;1979;-75
2023/03/30 09:14:07;;;;;;;;;;;;;;;14.70;100.00;95271.34;10509085;28;2054;-71
2023/03/30 09:19:11;;;;;;;;;;;;;;;15.40;100.00;95251.50;10512358;28;2192;-72
2023/03/30 09:24:14;;;;;;;;;;;;;;;15.84;100.00;95259.66;10511808;28;1998;-72
2023/03/30 09:29:18;;;;;;;;;;;;;;;15.90;100.00;95269.22;10497237;28;2124;-72
2023/03/30 09:34:21;;;;;;;;;;;;;;;16.18;100.00;95264.28;10518907;28;2060;-72
2023/03/30 09:39:24;;;;;;;;;;;;;;;16.80;100.00;95258.41;10517441;28;1949;-72
2023/03/30 09:44:27;;;;;;;;;;;;;;;17.02;100.00;95265.50;10518531;28;2292;-71
2023/03/30 09:49:32;;;;;;;;;;;;;;;16.88;100.00;95259.50;10510038;28;2043;-72
2023/03/30 09:54:36;;;;;;;;;;;;;;;16.82;100.00;95260.78;10522320;28;2134;-72
2023/03/30 09:59:38;;;;;;;;;;;;;;;17.03;100.00;95261.66;10524498;28;1916;-73
2023/03/30 10:04:41;;;;;;;;;;;;;;;17.02;100.00;95276.34;10502698;28;2041;-72
2023/03/30 10:09:45;;;;;;;;;;;;;;;16.84;100.00;95270.19;10519884;28;1989;-74
2023/03/30 10:14:48;;;;;;;;;;;;;;;17.00;100.00;95262.31;10502137;28;2903;-75
2023/03/30 10:19:50;;;;;;;;;;;;;;;17.24;100.00;95251.66;10514170;28;2025;-70
2023/03/30 10:25:05;;;;;;;;;;;;;;;17.46;100.00;95263.34;10511007;28;2129;-70
2023/03/30 10:30:11;;;;;;;;;;;;;;;17.17;100.00;95267.63;10518986;28;1979;-70
2023/03/30 10:35:17;;;;;;;;;;;;;;;17.09;100.00;95270.41;10514321;28;2002;-69
2023/03/30 10:40:29;;;;;;;;;;;;;;;16.68;100.00;95280.75;10514147;28;1932;-71
2023/03/30 10:45:42;;;;;;;;;;;;;;;15.98;100.00;95314.53;10512413;28;1966;-69
2023/03/30 10:50:45;;;;;;;;;;;;;;;15.42;100.00;95316.19;10510533;28;1969;-73
2023/03/30 10:55:47;;;;;;;;;;;;;;;15.16;100.00;95347.78;10509057;28;2098;-70
2023/03/30 11:01:00;;;;;;;;;;;;;;;14.68;100.00;95348.50;10509996;28;1975;-70
2023/03/30 11:06:04;;;;;;;;;;;;;;;14.28;100.00;95367.31;10512795;28;2102;-71
2023/03/30 11:11:17;;;;;;;;;;;;;;;14.40;100.00;95380.28;10508078;28;1943;-70
2023/03/30 11:16:20;;;;;;;;;;;;;;;14.64;100.00;95386.22;10513954;28;1982;-70
2023/03/30 11:21:23;;;;;;;;;;;;;;;14.74;100.00;95387.84;10502419;28;1923;-69
2023/03/30 11:26:35;;;;;;;;;;;;;;;14.13;100.00;95408.22;10510201;28;2014;-70
2023/03/30 11:31:38;;;;;;;;;;;;;;;13.82;100.00;95419.69;10511053;28;2058;-69
2023/03/30 11:36:42;;;;;;;;;;;;;;;12.90;100.00;95442.19;10488486;28;2035;-69
2023/03/30 11:41:44;;;;;;;;;;;;;;;12.13;100.00;95440.66;10495934;28;1981;-69
2023/03/30 11:46:48;;;;;;;;;;;;;;;11.72;100.00;95453.88;10518456;28;1908;-70
2023/03/30 11:51:51;;;;;;;;;;;;;;;11.59;100.00;95468.81;10520697;28;1986;-68
2023/03/30 11:56:54;;;;;;;;;;;;;;;11.36;100.00;95488.44;10519631;28;2137;-70
2023/03/30 12:01:57;;;;;;;;;;;;;;;10.96;100.00;95509.28;10522018;28;2179;-69
2023/03/30 12:06:59;;;;;;;;;;;;;;;10.64;100.00;95523.25;10518529;28;2018;-71
2023/03/30 12:12:02;;;;;;;;;;;;;;;10.32;100.00;95530.97;10527055;28;2056;-72
2023/03/30 12:17:05;;;;;;;;;;;;;;;10.08;100.00;95520.84;10519762;28;1930;-71
2023/03/30 12:22:08;;;;;;;;;;;;;;;9.89;100.00;95517.19;10517131;28;2091;-72
2023/03/30 12:27:11;;;;;;;;;;;;;;;9.83;100.00;95507.53;10524793;28;1934;-73
2023/03/30 12:32:13;;;;;;;;;;;;;;;9.82;100.00;95505.94;10510560;28;1971;-71
2023/03/30 12:37:17;;;;;;;;;;;;;;;9.81;100.00;95472.91;10498184;28;2124;-76
2023/03/30 12:42:25;;;;;;;;;;;;;;;9.93;100.00;95472.59;10513249;28;1962;-73
2023/03/30 12:47:29;;;;;;;;;;;;;;;10.06;100.00;95469.31;10514251;28;1970;-71
2023/03/30 12:52:33;;;;;;;;;;;;;;;10.13;100.00;95475.16;10514087;28;2078;-70
2023/03/30 12:57:36;;;;;;;;;;;;;;;10.19;100.00;95471.38;10530028;27;2001;-71
2023/03/30 13:02:39;;;;;;;;;;;;;;;10.31;100.00;95464.88;10513311;28;1998;-70
2023/03/30 13:07:43;;;;;;;;;;;;;;;10.27;100.00;95460.06;10515085;28;1951;-71
2023/03/30 13:12:48;;;;;;;;;;;;;;;10.26;100.00;95471.09;10513692;28;2006;-72
2023/03/30 13:17:50;;;;;;;;;;;;;;;10.21;100.00;95457.66;10508211;28;1974;-72
2023/03/30 13:22:53;;;;;;;;;;;;;;;10.29;100.00;95457.88;10507829;28;1983;-73
2023/03/30 13:27:56;;;;;;;;;;;;;;;10.38;100.00;95450.06;10513078;28;2071;-73
2023/03/30 13:32:58;;;;;;;;;;;;;;;10.41;100.00;95435.25;10511318;28;1984;-73
2023/03/30 13:38:02;;;;;;;;;;;;;;;10.38;100.00;95425.06;10517088;28;1963;-71
2023/03/30 13:43:15;;;;;;;;;;;;;;;10.50;100.00;95431.69;10515788;28;2034;-74
2023/03/30 13:48:18;;;;;;;;;;;;;;;10.50;100.00;95428.22;10501395;28;1985;-72
2023/03/30 13:53:22;;;;;;;;;;;;;;;10.59;100.00;95423.03;10522670;28;1973;-71
2023/03/30 13:58:25;;;;;;;;;;;;;;;10.55;100.00;95418.19;10522512;28;1857;-74
2023/03/30 14:03:28;;;;;;;;;;;;;;;10.53;100.00;95431.13;10521921;28;1979;-74
2023/03/30 14:08:34;;;;;;;;;;;;;;;10.40;100.00;95436.34;10509139;28;1978;-71
2023/03/30 14:13:36;;;;;;;;;;;;;;;10.31;100.00;95441.50;10517953;28;1967;-70
2023/03/30 14:18:39;;;;;;;;;;;;;;;10.38;100.00;95441.19;10510711;28;2076;-71
2023/03/30 14:23:41;;;;;;;;;;;;;;;10.36;100.00;95429.91;10508247;28;1999;-72
2023/03/30 14:28:44;;;;;;;;;;;;;;;10.47;100.00;95428.75;10506808;28;1966;-71
2023/03/30 14:33:47;;;;;;;;;;;;;;;10.43;100.00;95427.69;10510424;28;1978;-71
2023/03/30 14:38:50;;;;;;;;;;;;;;;10.45;100.00;95386.03;10508350;28;2031;-72
2023/03/30 14:43:52;;;;;;;;;;;;;;;10.67;100.00;95364.06;10509584;28;1944;-72
2023/03/30 14:48:55;;;;;;;;;;;;;;;10.95;100.00;95375.09;10509947;28;1964;-70
2023/03/30 14:53:57;;;;;;;;;;;;;;;11.25;100.00;95361.28;10512247;28;2105;-71
2023/03/30 14:59:00;;;;;;;;;;;;;;;11.70;100.00;95350.22;10507951;28;2090;-71
2023/03/30 15:04:02;;;;;;;;;;;;;;;12.03;100.00;95334.97;10528235;28;1971;-75
2023/03/30 15:09:05;;;;;;;;;;;;;;;11.85;100.00;95321.22;10510722;28;2027;-72
2023/03/30 15:14:08;;;;;;;;;;;;;;;11.82;100.00;95343.34;10509740;28;1998;-70
2023/03/30 15:19:10;;;;;;;;;;;;;;;11.44;100.00;95341.69;10516427;28;1979;-70
2023/03/30 15:24:13;;;;;;;;;;;;;;;11.34;100.00;95350.69;10521109;28;2089;-73
2023/03/30 15:29:15;;;;;;;;;;;;;;;11.30;100.00;95353.16;10523945;28;2140;-69
2023/03/30 15:34:18;;;;;;;;;;;;;;;11.34;100.00;95326.47;10521581;28;2063;-70
2023/03/30 15:39:21;;;;;;;;;;;;;;;11.36;100.00;95322.41;10520670;28;2012;-70
2023/03/30 15:44:23;;;;;;;;;;;;;;;11.47;100.00;95330.34;10494375;28;1959;-72
2023/03/30 15:49:26;;;;;;;;;;;;;;;11.56;100.00;95301.69;10513475;28;1971;-73
2023/03/30 15:54:29;;;;;;;;;;;;;;;11.61;100.00;95315.06;10519724;28;2041;-70
2023/03/30 15:59:31;;;;;;;;;;;;;;;11.78;100.00;95314.56;10520430;28;1994;-70
2023/03/30 16:04:34;;;;;;;;;;;;;;;11.64;100.00;95309.94;10514461;28;1998;-72
2023/03/30 16:09:38;;;;;;;;;;;;;;;11.44;100.00;95306.69;10523545;28;2086;-70
2023/03/30 16:14:42;;;;;;;;;;;;;;;11.37;100.00;95293.59;10518557;28;2099;-71
2023/03/30 16:19:45;;;;;;;;;;;;;;;11.53;100.00;95323.81;10527566;28;1966;-70
2023/03/30 16:24:49;;;;;;;;;;;;;;;11.53;100.00;95323.81;10523170;28;2041;-71
2023/03/30 16:29:52;;;;;;;;;;;;;;;11.32;100.00;95331.34;10519174;28;2078;-70
2023/03/30 16:34:55;;;;;;;;;;;;;;;11.15;100.00;95342.59;10516146;28;1919;-70
2023/03/30 16:39:58;;;;;;;;;;;;;;;10.86;100.00;95345.31;10517275;28;1967;-69
2023/03/30 16:45:00;;;;;;;;;;;;;;;10.65;100.00;95347.44;10520977;28;1994;-70
2023/03/30 16:50:03;;;;;;;;;;;;;;;10.50;100.00;95344.91;10522614;28;2194;-70
2023/03/30 16:55:14;;;;;;;;;;;;;;;10.38;100.00;95333.72;10524533;28;1981;-71
2023/03/30 17:00:16;;;;;;;;;;;;;;;10.26;100.00;95326.84;10523024;28;2151;-70
2023/03/30 17:05:20;;;;;;;;;;;;;;;10.16;100.00;95344.88;10521145;28;2107;-69
2023/03/30 17:10:23;;;;;;;;;;;;;;;10.04;100.00;95345.22;10523599;28;2040;-71
2023/03/30 17:15:26;;;;;;;;;;;;;;;10.07;100.00;95343.88;10523261;28;2072;-71
2023/03/30 17:20:29;;;;;;;;;;;;;;;10.06;100.00;95361.88;10530916;28;1970;-72
2023/03/30 17:25:34;;;;;;;;;;;;;;;10.08;100.00;95373.16;10520117;28;2046;-70
2023/03/30 17:30:39;;;;;;;;;;;;;;;10.24;100.00;95368.47;10521926;28;1985;-70
2023/03/30 17:35:41;;;;;;;;;;;;;;;10.20;100.00;95367.41;10516975;28;2034;-74
2023/03/30 17:40:45;;;;;;;;;;;;;;;10.29;100.00;95371.94;10516012;28;1989;-74
2023/03/30 17:45:48;;;;;;;;;;;;;;;10.23;100.00;95364.19;10522392;28;2062;-75
2023/03/30 17:50:51;;;;;;;;;;;;;;;10.08;100.00;95380.41;10515573;28;2127;-76
2023/03/30 17:55:54;;;;;;;;;;;;;;;9.90;100.00;95371.13;10509912;28;2064;-72
2023/03/30 18:00:58;;;;;;;;;;;;;;;9.82;100.00;95367.16;10500105;28;2010;-72
2023/03/30 18:06:01;;;;;;;;;;;;;;;9.77;100.00;95358.31;10511513;28;2060;-72
2023/03/30 18:11:04;;;;;;;;;;;;;;;9.67;100.00;95375.28;10518811;28;2033;-72
2023/03/30 18:16:07;;;;;;;;;;;;;;;9.62;100.00;95368.06;10518879;28;2005;-71
2023/03/30 18:21:09;;;;;;;;;;;;;;;9.79;100.00;95356.16;10511952;28;1949;-71
2023/03/30 18:26:12;;;;;;;;;;;;;;;9.70;100.00;95375.53;10514354;28;2056;-72
2023/03/30 18:31:15;;;;;;;;;;;;;;;9.67;100.00;95392.22;10506427;28;2114;-69
2023/03/30 18:36:18;;;;;;;;;;;;;;;9.69;100.00;95384.66;10511708;28;2017;-70
2023/03/30 18:41:20;;;;;;;;;;;;;;;9.62;100.00;95396.78;10510689;28;2072;-70
2023/03/30 18:46:23;;;;;;;;;;;;;;;9.63;100.00;95398.41;10514988;28;1971;-70
2023/03/30 18:51:26;;;;;;;;;;;;;;;9.57;100.00;95397.63;10523492;28;1439;-68
2023/03/30 18:56:29;;;;;;;;;;;;;;;9.54;100.00;95406.19;10520048;28;2003;-69
2023/03/30 19:01:33;;;;;;;;;;;;;;;9.48;100.00;95426.13;10523954;28;2033;-69
2023/03/30 19:06:37;;;;;;;;;;;;;;;9.42;100.00;95424.53;10521170;28;2093;-69
2023/03/30 19:11:39;;;;;;;;;;;;;;;9.40;100.00;95426.66;10522796;28;2041;-69
2023/03/30 19:16:42;;;;;;;;;;;;;;;9.32;100.00;95437.97;10515743;28;2104;-70
2023/03/30 19:21:45;;;;;;;;;;;;;;;9.20;100.00;95441.75;10523253;28;2052;-70
2023/03/30 19:26:48;;;;;;;;;;;;;;;9.13;100.00;95457.31;10518259;28;1990;-69
2023/03/30 19:31:51;;;;;;;;;;;;;;;9.11;100.00;95464.84;10529851;28;2120;-69
2023/03/30 19:36:54;;;;;;;;;;;;;;;9.05;100.00;95463.25;10523494;28;2047;-70
2023/03/30 19:41:57;;;;;;;;;;;;;;;9.05;100.00;95462.44;10522725;28;2001;-71
2023/03/30 19:46:59;;;;;;;;;;;;;;;9.11;100.00;95467.53;10523108;28;2176;-70
2023/03/30 19:52:02;;;;;;;;;;;;;;;9.25;100.00;95464.28;10524853;28;2007;-69
2023/03/30 19:57:07;;;;;;;;;;;;;;;9.52;100.00;95502.28;10520027;28;2425;-70
2023/03/30 20:02:12;;;;;;;;;;;;;;;9.61;100.00;95497.16;10523419;28;1998;-70
2023/03/30 20:07:14;;;;;;;;;;;;;;;9.23;100.00;95515.50;10527475;28;2047;-70
2023/03/30 20:12:16;;;;;;;;;;;;;;;8.94;100.00;95513.38;10534539;28;2048;-69
2023/03/30 20:17:20;;;;;;;;;;;;;;;8.92;100.00;95512.84;10528274;28;2048;-69
2023/03/30 20:22:24;;;;;;;;;;;;;;;8.84;100.00;95469.69;10532193;28;1582;-71
2023/03/30 20:27:27;;;;;;;;;;;;;;;8.80;100.00;95487.41;10529831;28;2152;-70
2023/03/30 20:32:39;;;;;;;;;;;;;;;8.66;100.00;95484.47;10524698;28;2047;-70
2023/03/30 20:37:41;;;;;;;;;;;;;;;8.65;100.00;95472.94;10528533;28;2128;-70
2023/03/30 20:42:46;;;;;;;;;;;;;;;8.72;100.00;95466.50;10517312;28;1994;-72
2023/03/30 20:47:50;;;;;;;;;;;;;;;8.68;100.00;95460.88;10522081;28;2067;-72
2023/03/30 20:52:53;;;;;;;;;;;;;;;8.57;100.00;95459.25;10515889;28;2071;-72
2023/03/30 20:57:57;;;;;;;;;;;;;;;8.61;100.00;95450.44;10519140;28;2068;-71
2023/03/30 21:03:00;;;;;;;;;;;;;;;8.45;100.00;95446.13;10495025;28;2056;-73
2023/03/30 21:08:06;;;;;;;;;;;;;;;8.46;100.00;95446.94;10510088;28;2357;-74
2023/03/30 21:13:09;;;;;;;;;;;;;;;8.51;100.00;95444.25;10503062;28;2257;-72
2023/03/30 21:18:12;;;;;;;;;;;;;;;8.51;100.00;95450.41;10513103;28;2082;-75
2023/03/30 21:23:14;;;;;;;;;;;;;;;8.42;100.00;95446.69;10517474;28;2045;-74
2023/03/30 21:28:17;;;;;;;;;;;;;;;8.37;100.00;95438.63;10520145;28;2044;-73
2023/03/30 21:33:21;;;;;;;;;;;;;;;8.39;100.00;95437.28;10525818;28;2017;-74
2023/03/30 21:38:23;;;;;;;;;;;;;;;8.36;100.00;95421.75;10505588;28;2090;-73
2023/03/30 21:43:26;;;;;;;;;;;;;;;8.42;100.00;95425.25;10511546;28;2116;-73
2023/03/30 21:48:30;;;;;;;;;;;;;;;8.32;100.00;95411.81;10507456;28;2074;-75
2023/03/30 21:53:42;;;;;;;;;;;;;;;8.05;100.00;95414.75;10507591;28;2066;-71
2023/03/30 21:58:45;;;;;;;;;;;;;;;7.86;100.00;95417.13;10495053;28;2050;-70
2023/03/30 22:03:49;;;;;;;;;;;;;;;7.74;100.00;95416.56;10512974;28;2125;-70
2023/03/30 22:09:01;;;;;;;;;;;;;;;7.58;100.00;95407.72;10511134;28;2001;-72
2023/03/30 22:14:04;;;;;;;;;;;;;;;7.43;100.00;95407.66;10513253;28;2019;-71
2023/03/30 22:19:06;;;;;;;;;;;;;;;7.35;100.00;95400.13;10518260;28;2146;-71
2023/03/30 22:24:08;;;;;;;;;;;;;;;7.28;100.00;95395.84;10514537;28;1975;-72
2023/03/30 22:29:11;;;;;;;;;;;;;;;7.20;100.00;95382.19;10509479;28;2236;-71
2023/03/30 22:34:14;;;;;;;;;;;;;;;7.12;100.00;95380.78;10511903;28;1946;-72
2023/03/30 22:39:17;;;;;;;;;;;;;;;7.21;100.00;95378.44;10508885;28;2054;-71
2023/03/30 22:44:20;;;;;;;;;;;;;;;7.17;100.00;95382.69;10509740;28;2100;-71
2023/03/30 22:49:23;;;;;;;;;;;;;;;7.26;100.00;95375.78;10521159;28;2383;-73
2023/03/30 22:54:26;;;;;;;;;;;;;;;7.28;100.00;95362.94;10512989;28;2121;-72
2023/03/30 22:59:30;;;;;;;;;;;;;;;7.29;100.00;95353.84;10513567;28;2130;-70
2023/03/30 23:04:35;;;;;;;;;;;;;;;7.33;100.00;95352.28;10512391;28;2114;-71
2023/03/30 23:09:37;;;;;;;;;;;;;;;7.44;100.00;95337.03;10514847;28;2073;-71
2023/03/30 23:14:41;;;;;;;;;;;;;;;7.41;100.00;95325.00;10509942;28;1990;-70
2023/03/30 23:19:45;;;;;;;;;;;;;;;7.51;100.00;95324.25;10509626;28;2048;-71
2023/03/30 23:24:48;;;;;;;;;;;;;;;7.48;100.00;95317.53;10513138;28;2129;-70
2023/03/30 23:29:51;;;;;;;;;;;;;;;7.53;100.00;95322.91;10509338;28;2028;-69
2023/03/30 23:34:54;;;;;;;;;;;;;;;7.54;100.00;95310.34;10517163;28;2080;-70
2023/03/30 23:40:00;;;;;;;;;;;;;;;7.55;100.00;95303.91;10506453;28;2083;-70
2023/03/30 23:45:02;;;;;;;;;;;;;;;7.42;100.00;95301.75;10523725;28;2077;-70
2023/03/30 23:50:06;;;;;;;;;;;;;;;7.22;100.00;95297.16;10519711;28;2104;-71
2023/03/30 23:55:09;;;;;;;;;;;;;;;7.14;100.00;95282.44;10517908;28;2038;-72
